Terminal Aerodrome Forecast
Issued by NWS Bismarck, ND

Home | Current Version | Previous Version | Text Only | Print | Product List | Glossary On
Versions: 1 2 3 4 5 6 7 8 9 10 11 12 13 14 15 16 17 18 19 20 21 22 23 24 25
000
FTUS43 KBIS 290500 AAA
TAFBIS
TAF AMD
KBIS 290550Z 2906/3006 04006KT P6SM SCT070 OVC100
      TEMPO 2908/2910 FEW020 SCT090
     FM291000 36005KT P6SM FEW018
     FM291500 34006KT P6SM FEW300
     FM291900 32008KT P6SM FEW300
     FM300000 32006KT P6SM FEW200=

USA.gov is the U.S. government's official web portal to all federal, state and local government web resources and services.